METAR Reports From Nearby Airports

 

KLUD - Decatur, Texas, USA
Distance from Wildwood: ESE 5mi, 8km
Updated: Sep 23, 2018 2:15am
Mist, Overcast
Mist, Overcast
 Wind from NNE
Wind: NNE 7 mph , 11 km/h
Temperature: 64°F , 18°C
Dew Point: 63°F , 17°C
Humidity: 94%
Barometer: 29.94 inHg , 1013.9 hPa
Summary: Mist
Clouds: Overcast
Visibility: 2 1/2 miles , 2 km
Cloud details: Overcast 400 ft
2018/09/23 07:15 KLUD 230715Z AUTO 02006KT 2 1/2SM BR OVC004 18/17 A2994 RMK AO2 T01760172
KXBP - Bridgeport, Texas, USA
Distance from Wildwood: WSW 11mi, 18km
Updated: Sep 23, 2018 2:15am
Drizzle, Overcast
Drizzle, Overcast
 Wind from NNE
Wind: NNE 6 mph , 9 km/h
Temperature: 64°F , 18°C
Dew Point: 64°F , 18°C
Humidity: 100%
Barometer: 29.97 inHg , 1014.9 hPa
Summary: Drizzle
Clouds: Overcast
Visibility: 5 miles , 8 km
Cloud details: Mostly Cloudy 700 ft
Overcast 1000 ft
2018/09/23 07:15 KXBP 230715Z AUTO 03005KT 5SM DZ BKN007 OVC010 18/18 A2997 RMK AO2 T01780178
 
K0F2 - Bowie, Texas, USA
Distance from Wildwood: NNW 24mi, 39km
Updated: Sep 23, 2018 2:15am
Light drizzle, Overcast
Light drizzle, Overcast
 Wind from NNE
Wind: NNE 7 mph , 11 km/h
Temperature: 64°F , 18°C
Dew Point: 63°F , 17°C
Humidity: 94%
Barometer: 29.97 inHg , 1014.9 hPa
Summary: Light Drizzle
Clouds: Overcast
Visibility: 5 miles , 8 km
Cloud details: Overcast 400 ft
2018/09/23 07:15 K0F2 230715Z AUTO 03006KT 5SM -DZ OVC004 18/17 A2997 RMK AO2 T01750172
KDTO - Denton, Texas, USA
Distance from Wildwood: E 27mi, 44km
Updated: Sep 23, 2018 2:03am
Overcast
Overcast
 Wind from NE
Wind: NE 12 mph , 19 km/h
Temperature: 64°F , 18°C
Dew Point: 64°F , 18°C
Humidity: 100%
Barometer: 29.92 inHg , 1013.2 hPa
Clouds: Overcast
Visibility: 7 miles , 11 km
Cloud details: Mostly Cloudy 800 ft
Overcast 1700 ft
2018/09/23 07:03 KDTO 230703Z AUTO 04010KT 7SM BKN008 OVC017 18/18 A2992 RMK AO2 RAE0658 P0000 T01830178
 
KAFW - Ft Worth/Allianc, Texas, USA
Distance from Wildwood: SE 29mi, 46km
Updated: Sep 23, 2018 1:53am
Overcast
Overcast
 Wind from NNE
Wind: NNE 12 mph , 19 km/h
Temperature: 66°F , 19°C
Dew Point: 64°F , 18°C
Humidity: 94%
Barometer: 29.92 inHg , 1013.2 hPa
Clouds: Overcast
Visibility: 10 miles , 16 km
Cloud details: Overcast 700 ft
2018/09/23 06:53 KAFW 230653Z 03010KT 10SM OVC007 19/18 A2992 RMK AO2 RAE27 SLP124 P0002 T01890178 $
KFTW - Fort Worth, Texas, USA
Distance from Wildwood: SSE 34mi, 55km
Updated: Sep 23, 2018 1:53am
Light rain, Overcast
Light rain, Overcast
 Wind from N
Wind: N 9 mph , 15 km/h
Temperature: 59°F , 15°C
Barometer: 29.92 inHg , 1013.2 hPa
Summary: Light Rain
Clouds: Overcast
Visibility: 5 miles , 8 km
Cloud details: Overcast 500 ft
2018/09/23 06:53 KFTW 230653Z 01008KT 5SM -RA OVC005 15/ A2992 RMK AO2 SLP126 P0001 T0150 $
 
KNFW - Fort Worth Nas, Texas, USA
Distance from Wildwood: SSE 36mi, 58km
Updated: Sep 23, 2018 1:52am
Overcast
Overcast
 Wind from N
Wind: N 10 mph , 17 km/h
Temperature: 66°F , 19°C
Dew Point: 64°F , 18°C
Humidity: 94%
Barometer: 29.93 inHg , 1013.5 hPa
Clouds: Overcast
Visibility: 10 miles , 16 km
Cloud details: Mostly Cloudy 800 ft
Overcast 1300 ft
2018/09/23 06:52 KNFW 230652Z AUTO 35009KT 10SM BKN008 OVC013 19/18 A2993 RMK AO2 CIG 004 N SLP118 T01940178 $
KGLE - Gainesville, Texas, USA
Distance from Wildwood: NE 38mi, 61km
Updated: Sep 23, 2018 2:15am
Mist, Overcast
Mist, Overcast
 Wind from NNE
Wind: NNE 7 mph , 11 km/h
Temperature: 63°F , 17°C
Dew Point: 63°F , 17°C
Humidity: 100%
Barometer: 29.97 inHg , 1014.9 hPa
Summary: Mist
Clouds: Overcast
Visibility: 2 1/2 miles , 2 km
Cloud details: Overcast 500 ft
2018/09/23 07:15 KGLE 230715Z AUTO 03006KT 2 1/2SM BR OVC005 17/17 A2997 RMK AO2 T01740168
 
KMWL - Mineral Wells, Texas, USA
Distance from Wildwood: SW 41mi, 65km
Updated: Sep 23, 2018 1:53am
Light rain, Overcast
Light rain, Overcast
 Wind from N
Wind: N 7 mph , 11 km/h
Temperature: 66°F , 19°C
Dew Point: 64°F , 18°C
Humidity: 94%
Barometer: 29.94 inHg , 1013.9 hPa
Summary: Light Rain
Clouds: Overcast
Visibility: 7 miles , 11 km
Cloud details: Overcast 600 ft
2018/09/23 06:53 KMWL 230653Z AUTO 35006KT 7SM -RA OVC006 19/18 A2994 RMK AO2 RAB14E21B45 SLP128 P0000 T01890178
KDFW - Dallas/Ft Worth, Texas, USA
Distance from Wildwood: ESE 45mi, 73km
Updated: Sep 23, 2018 1:53am
Light drizzle, Mist, Overcast
Light drizzle, Mist, Overcast
 Wind from NNE
Wind: NNE 13 mph , 20 km/h
Temperature: 66°F , 19°C
Dew Point: 64°F , 18°C
Humidity: 94%
Barometer: 29.90 inHg , 1012.5 hPa
Summary: Light drizzle, Mist
Clouds: Overcast
Visibility: 3 miles , 5 km
Cloud details: Overcast 500 ft
2018/09/23 06:53 KDFW 230653Z 03011KT 3SM -DZ BR OVC005 19/18 A2990 RMK AO2 RAE53DZB53 SLP117 P0001 T01890183 $